Noaa Gloria Michelle — KJLW — position and weather

sailwx.info

Track history (hours):
 
Tides and Currents Weather Stations Pressure Air Temp Water Temp Dewpoint Dewpoint Depression Visibility Wind Speed Wind Dir Waves Ship Positions

Noaa Gloria Michelle

Last reported at 2014-Sep-23 10:19 UTC. Time now 2014-Sep-23 12:21 UTC.
Position N 41°32' W 070°40'.

Length 22 m; draft 3 m.

Type: Fishing. MMSI: 338066383.

Date/timePositionNaut miles runAvg speedWind from/ knotsBaromVisibWave heightAir tempDewpointWater temp
2014-Sep-23 10:19N 41°32' W 070°40'0 0.0
2014-Sep-22 11:31N 41°32' W 070°40'0 0.0
2014-Sep-22 10:19N 41°32' W 070°40'0 0.0
2014-Sep-22 09:31N 41°32' W 070°40'0 0.0
2014-Sep-22 08:31N 41°32' W 070°40'0 0.0
2014-Sep-22 07:31N 41°32' W 070°40'0 0.0
2014-Sep-22 06:19N 41°32' W 070°40'0 0.0
2014-Sep-22 05:31N 41°32' W 070°40'0 0.0
2014-Sep-22 04:31N 41°32' W 070°40'0 0.0
2014-Sep-22 03:31N 41°32' W 070°40'0 0.0
2014-Sep-22 02:31N 41°32' W 070°40'0 0.0
2014-Sep-22 01:10N 41°32' W 070°40'0 0.0
2014-Sep-22 00:04N 41°32' W 070°40'0 0.0
2014-Sep-21 23:31N 41°32' W 070°40'0 0.0
2014-Sep-21 22:28N 41°32' W 070°40'0 0.0
2014-Sep-21 21:19N 41°32' W 070°40'0 0.0
2014-Sep-21 20:28N 41°32' W 070°40'0 0.0
2014-Sep-21 18:07N 41°32' W 070°40'0 0.0
2014-Sep-21 16:13N 41°32' W 070°40'0 0.0
2014-Sep-21 15:19N 41°32' W 070°40'0 0.0
2014-Sep-21 13:25N 41°32' W 070°40'0 0.0
2014-Sep-21 12:31N 41°32' W 070°40'0 0.0
2014-Sep-21 11:31N 41°32' W 070°40'0 0.0
2014-Sep-21 10:25N 41°32' W 070°40'0 0.0
2014-Sep-21 09:28N 41°32' W 070°40'0 0.0
2014-Sep-21 08:28N 41°32' W 070°40'0 0.0
2014-Sep-21 07:31N 41°32' W 070°40'0 0.0
2014-Sep-21 06:31N 41°32' W 070°40'0 0.0
2014-Sep-21 05:31N 41°32' W 070°40'0 0.0
2014-Sep-21 04:31N 41°32' W 070°40'0 0.0
2014-Sep-21 03:22N 41°32' W 070°40'0 0.0
2014-Sep-21 02:28N 41°32' W 070°40'0 0.0
2014-Sep-21 01:31N 41°32' W 070°40'0 0.0
2014-Sep-21 00:31N 41°32' W 070°40'0 0.0
2014-Sep-20 23:31N 41°32' W 070°40'0 0.0
2014-Sep-20 22:07N 41°32' W 070°40'0 0.0
2014-Sep-20 21:25N 41°32' W 070°40'0 0.0
2014-Sep-20 20:31N 41°32' W 070°40'0 0.0
2014-Sep-20 19:28N 41°32' W 070°40'0 0.0
2014-Sep-20 18:07N 41°32' W 070°40'0 0.0
2014-Sep-20 16:31N 41°32' W 070°40'0 0.0
2014-Sep-20 14:31N 41°32' W 070°40'0 0.0
2014-Sep-20 13:13N 41°32' W 070°40'0 0.0
2014-Sep-20 10:25N 41°32' W 070°40'0 0.0
2014-Sep-20 05:25N 41°32' W 070°40'0 0.0
2014-Sep-19 15:25N 41°32' W 070°40'12 0.5
2014-Sep-18 14:29N 41°35' W 070°25'9 2.7
2014-Sep-18 11:15N 41°32' W 070°36'4 2.0
2014-Sep-18 09:29N 41°32' W 070°40'0 0.0
2014-Sep-18 07:29N 41°32' W 070°40'0 0.0
2014-Sep-18 06:32N 41°32' W 070°40'0 0.0
2014-Sep-18 05:32N 41°32' W 070°40'0 0.0
2014-Sep-18 04:32N 41°32' W 070°40'0 0.0
2014-Sep-18 03:32N 41°32' W 070°40'  
2014-Sep-15 15:22N 41°31' W 070°09'19 1.0
2014-Sep-14 19:28N 41°16' W 070°25'12 8.4
2014-Sep-14 18:04N 41°13' W 070°10'1 0.5
2014-Sep-14 15:21N 41°14' W 070°08'9 3.3
2014-Sep-14 12:31N 41°16' W 070°20'22 5.3
2014-Sep-14 08:22N 41°32' W 070°40'0 0.0
2014-Sep-14 07:25N 41°32' W 070°40'0 0.0
2014-Sep-14 06:28N 41°32' W 070°40'18 2.0
2014-Sep-13 21:30N 41°32' W 070°17'1 0.9
2014-Sep-13 20:33N 41°33' W 070°16'4 3.0
2014-Sep-13 19:19N 41°32' W 070°20'5 5.8
2014-Sep-13 18:31N 41°29' W 070°16'3 1.6
2014-Sep-13 16:26N 41°28' W 070°11'4 4.3
2014-Sep-13 15:33N 41°26' W 070°15'3 2.8
2014-Sep-13 14:22N 41°27' W 070°20'3 2.5
2014-Sep-13 13:15N 41°28' W 070°23'3 2.8
2014-Sep-13 12:18N 41°30' W 070°25'  
Track history (hours):
 
Tides and Currents Weather Stations Pressure Air Temp Water Temp Dewpoint Dewpoint Depression Visibility Wind Speed Wind Dir Waves Ship Positions

Noaa Gloria Michelle

Last reported at 2014-Sep-23 10:19 UTC. Time now 2014-Sep-23 12:21 UTC.
Position N 41°32' W 070°40'.

Length 22 m; draft 3 m.

Type: Fishing. MMSI: 338066383.

Date/timePositionNaut miles runAvg speedWind from/ knotsBaromVisibWave heightAir tempDewpointWater temp
2014-Sep-23 10:19N 41°32' W 070°40'0 0.0
2014-Sep-22 11:31N 41°32' W 070°40'0 0.0
2014-Sep-22 10:19N 41°32' W 070°40'0 0.0
2014-Sep-22 09:31N 41°32' W 070°40'0 0.0
2014-Sep-22 08:31N 41°32' W 070°40'0 0.0
2014-Sep-22 07:31N 41°32' W 070°40'0 0.0
2014-Sep-22 06:19N 41°32' W 070°40'0 0.0
2014-Sep-22 05:31N 41°32' W 070°40'0 0.0
2014-Sep-22 04:31N 41°32' W 070°40'0 0.0
2014-Sep-22 03:31N 41°32' W 070°40'0 0.0
2014-Sep-22 02:31N 41°32' W 070°40'0 0.0
2014-Sep-22 01:10N 41°32' W 070°40'0 0.0
2014-Sep-22 00:04N 41°32' W 070°40'0 0.0
2014-Sep-21 23:31N 41°32' W 070°40'0 0.0
2014-Sep-21 22:28N 41°32' W 070°40'0 0.0
2014-Sep-21 21:19N 41°32' W 070°40'0 0.0
2014-Sep-21 20:28N 41°32' W 070°40'0 0.0
2014-Sep-21 18:07N 41°32' W 070°40'0 0.0
2014-Sep-21 16:13N 41°32' W 070°40'0 0.0
2014-Sep-21 15:19N 41°32' W 070°40'0 0.0
2014-Sep-21 13:25N 41°32' W 070°40'0 0.0
2014-Sep-21 12:31N 41°32' W 070°40'0 0.0
2014-Sep-21 11:31N 41°32' W 070°40'0 0.0
2014-Sep-21 10:25N 41°32' W 070°40'0 0.0
2014-Sep-21 09:28N 41°32' W 070°40'0 0.0
2014-Sep-21 08:28N 41°32' W 070°40'0 0.0
2014-Sep-21 07:31N 41°32' W 070°40'0 0.0
2014-Sep-21 06:31N 41°32' W 070°40'0 0.0
2014-Sep-21 05:31N 41°32' W 070°40'0 0.0
2014-Sep-21 04:31N 41°32' W 070°40'0 0.0
2014-Sep-21 03:22N 41°32' W 070°40'0 0.0
2014-Sep-21 02:28N 41°32' W 070°40'0 0.0
2014-Sep-21 01:31N 41°32' W 070°40'0 0.0
2014-Sep-21 00:31N 41°32' W 070°40'0 0.0
2014-Sep-20 23:31N 41°32' W 070°40'0 0.0
2014-Sep-20 22:07N 41°32' W 070°40'0 0.0
2014-Sep-20 21:25N 41°32' W 070°40'0 0.0
2014-Sep-20 20:31N 41°32' W 070°40'0 0.0
2014-Sep-20 19:28N 41°32' W 070°40'0 0.0
2014-Sep-20 18:07N 41°32' W 070°40'0 0.0
2014-Sep-20 16:31N 41°32' W 070°40'0 0.0
2014-Sep-20 14:31N 41°32' W 070°40'0 0.0
2014-Sep-20 13:13N 41°32' W 070°40'0 0.0
2014-Sep-20 10:25N 41°32' W 070°40'0 0.0
2014-Sep-20 05:25N 41°32' W 070°40'0 0.0
2014-Sep-19 15:25N 41°32' W 070°40'12 0.5
2014-Sep-18 14:29N 41°35' W 070°25'9 2.7
2014-Sep-18 11:15N 41°32' W 070°36'4 2.0
2014-Sep-18 09:29N 41°32' W 070°40'0 0.0
2014-Sep-18 07:29N 41°32' W 070°40'0 0.0
2014-Sep-18 06:32N 41°32' W 070°40'0 0.0
2014-Sep-18 05:32N 41°32' W 070°40'0 0.0
2014-Sep-18 04:32N 41°32' W 070°40'0 0.0
2014-Sep-18 03:32N 41°32' W 070°40'  
2014-Sep-15 15:22N 41°31' W 070°09'19 1.0
2014-Sep-14 19:28N 41°16' W 070°25'12 8.4
2014-Sep-14 18:04N 41°13' W 070°10'1 0.5
2014-Sep-14 15:21N 41°14' W 070°08'9 3.3
2014-Sep-14 12:31N 41°16' W 070°20'22 5.3
2014-Sep-14 08:22N 41°32' W 070°40'0 0.0
2014-Sep-14 07:25N 41°32' W 070°40'0 0.0
2014-Sep-14 06:28N 41°32' W 070°40'18 2.0
2014-Sep-13 21:30N 41°32' W 070°17'1 0.9
2014-Sep-13 20:33N 41°33' W 070°16'4 3.0
2014-Sep-13 19:19N 41°32' W 070°20'5 5.8
2014-Sep-13 18:31N 41°29' W 070°16'3 1.6
2014-Sep-13 16:26N 41°28' W 070°11'4 4.3
2014-Sep-13 15:33N 41°26' W 070°15'3 2.8
2014-Sep-13 14:22N 41°27' W 070°20'3 2.5
2014-Sep-13 13:15N 41°28' W 070°23'3 2.8
2014-Sep-13 12:18N 41°30' W 070°25'  

Dump ship's entire track history